Volgoneft-250 — UFQT — position and weather

sailwx.info

Track history (hours):
 
Tides and Currents Weather Stations Pressure Air Temp Water Temp Dewpoint Dewpoint Depression Visibility Wind Speed Wind Dir Waves Ship Positions

Volgoneft-250

Last reported at 2016-Jul-22 00:18 UTC. Time now 2016-Jul-28 12:27 UTC.
Position N 45°33' E 036°46'.

Length 132 m; draft 3.4 m.

Type: Tanker. MMSI: 273340600.

Date/timePositionNaut miles runAvg speedWind from/ knotsBaromVisibWave heightAir tempDewpointWater temp
2016-Jul-22 00:18N 45°33' E 036°46'6 7.9
2016-Jul-21 23:33N 45°27' E 036°43'7 7.4
2016-Jul-21 22:33N 45°21' E 036°38'8 7.6
2016-Jul-21 21:31N 45°16' E 036°29'6 5.7
2016-Jul-21 20:33N 45°11' E 036°31'1 0.2
2016-Jul-21 17:31N 45°11' E 036°31'3 0.3
2016-Jul-21 06:25N 45°08' E 036°33'0 0.2
2016-Jul-21 05:33N 45°08' E 036°33'0 0.0
2016-Jul-21 04:30N 45°08' E 036°33'5 4.4
2016-Jul-21 03:28N 45°11' E 036°28'7 7.5
2016-Jul-21 02:32N 45°18' E 036°30'6 5.8
2016-Jul-21 01:33N 45°20' E 036°37'7 6.9
2016-Jul-21 00:33N 45°26' E 036°42'3 3.1
2016-Jul-20 23:33N 45°29' E 036°45'0 0.0
2016-Jul-20 22:24N 45°29' E 036°45'0 0.0
2016-Jul-20 21:33N 45°29' E 036°45'0 0.0
2016-Jul-20 20:25N 45°29' E 036°45'0 0.0
2016-Jul-20 19:25N 45°29' E 036°45'0 0.0
2016-Jul-20 17:32N 45°29' E 036°45'0 0.0
2016-Jul-20 15:33N 45°28' E 036°45'0 0.0
2016-Jul-20 14:26N 45°28' E 036°45'0 0.0
2016-Jul-20 13:33N 45°28' E 036°45'0 0.0
2016-Jul-20 11:24N 45°28' E 036°45'0 0.0
2016-Jul-20 10:25N 45°28' E 036°45'0 0.0
2016-Jul-20 09:30N 45°28' E 036°45'0 0.0
2016-Jul-20 08:33N 45°28' E 036°45'0 0.0
2016-Jul-20 07:33N 45°28' E 036°45'0 0.0
2016-Jul-20 06:29N 45°28' E 036°45'0 0.0
2016-Jul-20 05:31N 45°28' E 036°45'0 0.0
2016-Jul-20 04:33N 45°28' E 036°45'0 0.0
2016-Jul-20 03:21N 45°29' E 036°45'0 0.0
2016-Jul-20 01:20N 45°28' E 036°45'0 0.0
2016-Jul-19 23:20N 45°28' E 036°45'0 0.0
2016-Jul-19 19:29N 45°29' E 036°45'0 0.0
2016-Jul-19 17:06N 45°29' E 036°45'0 0.0
2016-Jul-19 16:28N 45°29' E 036°45'0 0.0
2016-Jul-19 15:33N 45°29' E 036°45'0 0.0
2016-Jul-19 14:18N 45°29' E 036°45'0 0.0
2016-Jul-19 13:29N 45°29' E 036°45'0 0.0
2016-Jul-19 12:26N 45°29' E 036°45'0 0.0
2016-Jul-19 11:33N 45°29' E 036°45'0 0.0
2016-Jul-19 10:33N 45°29' E 036°45'0 0.0
2016-Jul-19 09:33N 45°29' E 036°45'0 0.0
2016-Jul-19 08:30N 45°29' E 036°45'0 0.0
2016-Jul-19 07:33N 45°29' E 036°45'0 0.0
2016-Jul-19 04:33N 45°29' E 036°45'0 0.0
2016-Jul-19 03:33N 45°29' E 036°45'0 0.0
2016-Jul-19 02:33N 45°29' E 036°45'0 0.0
2016-Jul-19 01:29N 45°29' E 036°45'0 0.0
2016-Jul-19 00:29N 45°29' E 036°45'0 0.0
2016-Jul-18 23:33N 45°29' E 036°45'0 0.0
2016-Jul-18 22:31N 45°29' E 036°45'0 0.0
2016-Jul-18 21:29N 45°29' E 036°45'0 0.0
2016-Jul-18 19:25N 45°29' E 036°45'0 0.1
2016-Jul-18 18:28N 45°29' E 036°45'0 0.0
2016-Jul-18 17:33N 45°29' E 036°45'0 0.0
2016-Jul-18 16:33N 45°29' E 036°45'0 0.0
2016-Jul-18 15:33N 45°29' E 036°45'0 0.1
2016-Jul-18 14:33N 45°29' E 036°45'0 0.0
2016-Jul-18 12:33N 45°29' E 036°45'0 0.0
2016-Jul-18 11:33N 45°29' E 036°45'0 0.0
2016-Jul-18 10:29N 45°29' E 036°45'0 0.0
2016-Jul-18 09:33N 45°29' E 036°45'0 0.0
2016-Jul-18 08:32N 45°29' E 036°45'0 0.0
2016-Jul-18 07:33N 45°29' E 036°45'0 0.0
2016-Jul-18 06:34N 45°29' E 036°45'0 0.0
2016-Jul-18 04:27N 45°29' E 036°45'0 0.0
2016-Jul-18 02:29N 45°29' E 036°45'0 0.0
2016-Jul-18 01:30N 45°29' E 036°45'0 0.0
2016-Jul-18 00:23N 45°29' E 036°45'0 0.1
2016-Jul-17 23:33N 45°29' E 036°45'0 0.0
2016-Jul-17 22:33N 45°29' E 036°45'0 0.0
2016-Jul-17 21:33N 45°29' E 036°45'0 0.0
2016-Jul-17 20:33N 45°29' E 036°45'0 0.0
2016-Jul-17 19:25N 45°29' E 036°45'0 0.0
2016-Jul-17 18:33N 45°29' E 036°45'0 0.1
2016-Jul-17 17:33N 45°29' E 036°45'0 0.0
2016-Jul-17 16:34N 45°29' E 036°45'0 0.0
2016-Jul-17 15:24N 45°29' E 036°45'0 0.0
2016-Jul-17 14:33N 45°29' E 036°45'0 0.1
2016-Jul-17 13:33N 45°29' E 036°45'0 0.0
2016-Jul-17 12:33N 45°29' E 036°45'0 0.0
2016-Jul-17 11:33N 45°29' E 036°45'0 0.0
2016-Jul-17 10:33N 45°29' E 036°45'0 0.0
2016-Jul-17 09:33N 45°29' E 036°45'0 0.0
2016-Jul-17 08:33N 45°29' E 036°45'0 0.0
2016-Jul-17 07:33N 45°29' E 036°45'0 0.0
2016-Jul-17 06:33N 45°29' E 036°45'0 0.0
2016-Jul-17 04:34N 45°29' E 036°45'0 0.0
2016-Jul-17 03:33N 45°29' E 036°45'0 0.0
2016-Jul-17 02:33N 45°29' E 036°45'0 0.0
2016-Jul-17 01:31N 45°29' E 036°45'0 0.0
2016-Jul-17 00:33N 45°29' E 036°45'0 0.0
2016-Jul-16 23:33N 45°29' E 036°45'0 0.0
2016-Jul-16 22:31N 45°29' E 036°45'0 0.0
2016-Jul-16 21:33N 45°29' E 036°45'0 0.0
2016-Jul-16 20:33N 45°29' E 036°45'0 0.0
2016-Jul-16 19:15N 45°29' E 036°45'0 0.0
2016-Jul-16 17:33N 45°29' E 036°45'0 0.0
2016-Jul-16 16:33N 45°29' E 036°45'0 0.0
2016-Jul-16 15:28N 45°29' E 036°45'0 0.1
2016-Jul-16 14:32N 45°29' E 036°45'0 0.0
2016-Jul-16 13:33N 45°29' E 036°45'0 0.0
2016-Jul-16 12:33N 45°29' E 036°45'0 0.0
2016-Jul-16 11:34N 45°29' E 036°45'0 0.4
2016-Jul-16 10:34N 45°29' E 036°45'7 6.6
2016-Jul-16 09:33N 45°35' E 036°48'60 8.2
2016-Jul-16 02:16N 46°31' E 037°19'6 8.0
2016-Jul-16 01:34N 46°36' E 037°22'8 8.1
2016-Jul-16 00:33N 46°44' E 037°26'8 7.7
2016-Jul-15 23:32N 46°51' E 037°30'7 7.5
2016-Jul-15 22:33N 46°53' E 037°41'8 7.6
2016-Jul-15 21:32N 46°55' E 037°52'8 7.5
2016-Jul-15 20:27N 46°58' E 038°03'7 7.4
2016-Jul-15 19:33N 47°00' E 038°12'14 7.2
2016-Jul-15 17:33N 47°01' E 038°33'7 6.7
2016-Jul-15 16:30N 47°03' E 038°43'  
Track history (hours):
 
Tides and Currents Weather Stations Pressure Air Temp Water Temp Dewpoint Dewpoint Depression Visibility Wind Speed Wind Dir Waves Ship Positions

Volgoneft-250

Last reported at 2016-Jul-22 00:18 UTC. Time now 2016-Jul-28 12:27 UTC.
Position N 45°33' E 036°46'.

Length 132 m; draft 3.4 m.

Type: Tanker. MMSI: 273340600.

Date/timePositionNaut miles runAvg speedWind from/ knotsBaromVisibWave heightAir tempDewpointWater temp
2016-Jul-22 00:18N 45°33' E 036°46'6 7.9
2016-Jul-21 23:33N 45°27' E 036°43'7 7.4
2016-Jul-21 22:33N 45°21' E 036°38'8 7.6
2016-Jul-21 21:31N 45°16' E 036°29'6 5.7
2016-Jul-21 20:33N 45°11' E 036°31'1 0.2
2016-Jul-21 17:31N 45°11' E 036°31'3 0.3
2016-Jul-21 06:25N 45°08' E 036°33'0 0.2
2016-Jul-21 05:33N 45°08' E 036°33'0 0.0
2016-Jul-21 04:30N 45°08' E 036°33'5 4.4
2016-Jul-21 03:28N 45°11' E 036°28'7 7.5
2016-Jul-21 02:32N 45°18' E 036°30'6 5.8
2016-Jul-21 01:33N 45°20' E 036°37'7 6.9
2016-Jul-21 00:33N 45°26' E 036°42'3 3.1
2016-Jul-20 23:33N 45°29' E 036°45'0 0.0
2016-Jul-20 22:24N 45°29' E 036°45'0 0.0
2016-Jul-20 21:33N 45°29' E 036°45'0 0.0
2016-Jul-20 20:25N 45°29' E 036°45'0 0.0
2016-Jul-20 19:25N 45°29' E 036°45'0 0.0
2016-Jul-20 17:32N 45°29' E 036°45'0 0.0
2016-Jul-20 15:33N 45°28' E 036°45'0 0.0
2016-Jul-20 14:26N 45°28' E 036°45'0 0.0
2016-Jul-20 13:33N 45°28' E 036°45'0 0.0
2016-Jul-20 11:24N 45°28' E 036°45'0 0.0
2016-Jul-20 10:25N 45°28' E 036°45'0 0.0
2016-Jul-20 09:30N 45°28' E 036°45'0 0.0
2016-Jul-20 08:33N 45°28' E 036°45'0 0.0
2016-Jul-20 07:33N 45°28' E 036°45'0 0.0
2016-Jul-20 06:29N 45°28' E 036°45'0 0.0
2016-Jul-20 05:31N 45°28' E 036°45'0 0.0
2016-Jul-20 04:33N 45°28' E 036°45'0 0.0
2016-Jul-20 03:21N 45°29' E 036°45'0 0.0
2016-Jul-20 01:20N 45°28' E 036°45'0 0.0
2016-Jul-19 23:20N 45°28' E 036°45'0 0.0
2016-Jul-19 19:29N 45°29' E 036°45'0 0.0
2016-Jul-19 17:06N 45°29' E 036°45'0 0.0
2016-Jul-19 16:28N 45°29' E 036°45'0 0.0
2016-Jul-19 15:33N 45°29' E 036°45'0 0.0
2016-Jul-19 14:18N 45°29' E 036°45'0 0.0
2016-Jul-19 13:29N 45°29' E 036°45'0 0.0
2016-Jul-19 12:26N 45°29' E 036°45'0 0.0
2016-Jul-19 11:33N 45°29' E 036°45'0 0.0
2016-Jul-19 10:33N 45°29' E 036°45'0 0.0
2016-Jul-19 09:33N 45°29' E 036°45'0 0.0
2016-Jul-19 08:30N 45°29' E 036°45'0 0.0
2016-Jul-19 07:33N 45°29' E 036°45'0 0.0
2016-Jul-19 04:33N 45°29' E 036°45'0 0.0
2016-Jul-19 03:33N 45°29' E 036°45'0 0.0
2016-Jul-19 02:33N 45°29' E 036°45'0 0.0
2016-Jul-19 01:29N 45°29' E 036°45'0 0.0
2016-Jul-19 00:29N 45°29' E 036°45'0 0.0
2016-Jul-18 23:33N 45°29' E 036°45'0 0.0
2016-Jul-18 22:31N 45°29' E 036°45'0 0.0
2016-Jul-18 21:29N 45°29' E 036°45'0 0.0
2016-Jul-18 19:25N 45°29' E 036°45'0 0.1
2016-Jul-18 18:28N 45°29' E 036°45'0 0.0
2016-Jul-18 17:33N 45°29' E 036°45'0 0.0
2016-Jul-18 16:33N 45°29' E 036°45'0 0.0
2016-Jul-18 15:33N 45°29' E 036°45'0 0.1
2016-Jul-18 14:33N 45°29' E 036°45'0 0.0
2016-Jul-18 12:33N 45°29' E 036°45'0 0.0
2016-Jul-18 11:33N 45°29' E 036°45'0 0.0
2016-Jul-18 10:29N 45°29' E 036°45'0 0.0
2016-Jul-18 09:33N 45°29' E 036°45'0 0.0
2016-Jul-18 08:32N 45°29' E 036°45'0 0.0
2016-Jul-18 07:33N 45°29' E 036°45'0 0.0
2016-Jul-18 06:34N 45°29' E 036°45'0 0.0
2016-Jul-18 04:27N 45°29' E 036°45'0 0.0
2016-Jul-18 02:29N 45°29' E 036°45'0 0.0
2016-Jul-18 01:30N 45°29' E 036°45'0 0.0
2016-Jul-18 00:23N 45°29' E 036°45'0 0.1
2016-Jul-17 23:33N 45°29' E 036°45'0 0.0
2016-Jul-17 22:33N 45°29' E 036°45'0 0.0
2016-Jul-17 21:33N 45°29' E 036°45'0 0.0
2016-Jul-17 20:33N 45°29' E 036°45'0 0.0
2016-Jul-17 19:25N 45°29' E 036°45'0 0.0
2016-Jul-17 18:33N 45°29' E 036°45'0 0.1
2016-Jul-17 17:33N 45°29' E 036°45'0 0.0
2016-Jul-17 16:34N 45°29' E 036°45'0 0.0
2016-Jul-17 15:24N 45°29' E 036°45'0 0.0
2016-Jul-17 14:33N 45°29' E 036°45'0 0.1
2016-Jul-17 13:33N 45°29' E 036°45'0 0.0
2016-Jul-17 12:33N 45°29' E 036°45'0 0.0
2016-Jul-17 11:33N 45°29' E 036°45'0 0.0
2016-Jul-17 10:33N 45°29' E 036°45'0 0.0
2016-Jul-17 09:33N 45°29' E 036°45'0 0.0
2016-Jul-17 08:33N 45°29' E 036°45'0 0.0
2016-Jul-17 07:33N 45°29' E 036°45'0 0.0
2016-Jul-17 06:33N 45°29' E 036°45'0 0.0
2016-Jul-17 04:34N 45°29' E 036°45'0 0.0
2016-Jul-17 03:33N 45°29' E 036°45'0 0.0
2016-Jul-17 02:33N 45°29' E 036°45'0 0.0
2016-Jul-17 01:31N 45°29' E 036°45'0 0.0
2016-Jul-17 00:33N 45°29' E 036°45'0 0.0
2016-Jul-16 23:33N 45°29' E 036°45'0 0.0
2016-Jul-16 22:31N 45°29' E 036°45'0 0.0
2016-Jul-16 21:33N 45°29' E 036°45'0 0.0
2016-Jul-16 20:33N 45°29' E 036°45'0 0.0
2016-Jul-16 19:15N 45°29' E 036°45'0 0.0
2016-Jul-16 17:33N 45°29' E 036°45'0 0.0
2016-Jul-16 16:33N 45°29' E 036°45'0 0.0
2016-Jul-16 15:28N 45°29' E 036°45'0 0.1
2016-Jul-16 14:32N 45°29' E 036°45'0 0.0
2016-Jul-16 13:33N 45°29' E 036°45'0 0.0
2016-Jul-16 12:33N 45°29' E 036°45'0 0.0
2016-Jul-16 11:34N 45°29' E 036°45'0 0.4
2016-Jul-16 10:34N 45°29' E 036°45'7 6.6
2016-Jul-16 09:33N 45°35' E 036°48'60 8.2
2016-Jul-16 02:16N 46°31' E 037°19'6 8.0
2016-Jul-16 01:34N 46°36' E 037°22'8 8.1
2016-Jul-16 00:33N 46°44' E 037°26'8 7.7
2016-Jul-15 23:32N 46°51' E 037°30'7 7.5
2016-Jul-15 22:33N 46°53' E 037°41'8 7.6
2016-Jul-15 21:32N 46°55' E 037°52'8 7.5
2016-Jul-15 20:27N 46°58' E 038°03'7 7.4
2016-Jul-15 19:33N 47°00' E 038°12'14 7.2
2016-Jul-15 17:33N 47°01' E 038°33'7 6.7
2016-Jul-15 16:30N 47°03' E 038°43'  

Dump ship's entire track history